Time;durP1;ratioP1;P1;durP2;ratioP2;P2;SDS_P1;SDS_P2;PMS_P1;PMS_P2;Temp;Humidity;BMP_temperature;BMP_pressure;BME280_temperature;BME280_humidity;BME280_pressure;Samples;Min_cycle;Max_cycle;Signal;HPM_P1;HPM_P2
2022/01/04 00:02:44;;;;;;;4.33;2.50;;;10.70;99.90;;;;;;4930621;29;20949;-73
2022/01/04 00:05:31;;;;;;;5.97;2.80;;;10.60;99.90;;;;;;4928213;29;20993;-73
2022/01/04 00:08:17;;;;;;;6.27;2.43;;;10.70;99.90;;;;;;4939863;29;20893;-73
2022/01/04 00:11:08;;;;;;;9.13;3.07;;;10.70;99.90;;;;;;4932435;29;20519;-74
2022/01/04 00:13:54;;;;;;;4.73;2.20;;;10.70;99.90;;;;;;4935165;29;20423;-73
2022/01/04 00:16:40;;;;;;;4.30;2.23;;;10.80;99.90;;;;;;4937655;29;20780;-73
2022/01/04 00:19:25;;;;;;;4.33;2.57;;;10.80;99.90;;;;;;4936298;29;20419;-73
2022/01/04 00:22:13;;;;;;;10.00;2.70;;;10.80;99.90;;;;;;4934227;28;20447;-73
2022/01/04 00:24:59;;;;;;;4.60;2.40;;;10.80;99.90;;;;;;4933519;29;20507;-73
2022/01/04 00:27:44;;;;;;;3.73;2.27;;;10.80;99.90;;;;;;4930875;29;20495;-73
2022/01/04 00:30:30;;;;;;;4.13;2.30;;;10.80;99.90;;;;;;4931372;29;21130;-73
2022/01/04 00:33:17;;;;;;;5.53;4.13;;;10.70;99.90;;;;;;4927395;29;20395;-73
2022/01/04 00:36:03;;;;;;;5.60;2.27;;;10.80;99.90;;;;;;4932257;29;20439;-73
2022/01/04 00:38:50;;;;;;;5.93;2.80;;;10.70;99.90;;;;;;4931444;29;20436;-73
2022/01/04 00:41:36;;;;;;;4.17;3.20;;;10.80;99.90;;;;;;4931200;29;20570;-73
2022/01/04 00:44:22;;;;;;;4.10;2.50;;;10.80;99.90;;;;;;4934201;29;21025;-73
2022/01/04 00:47:09;;;;;;;3.90;2.13;;;10.80;99.90;;;;;;4933480;29;20457;-73
2022/01/04 00:49:54;;;;;;;4.03;2.90;;;10.90;99.90;;;;;;4929784;29;20960;-73
2022/01/04 00:52:39;;;;;;;5.63;2.50;;;10.80;99.90;;;;;;4932418;29;20504;-73
2022/01/04 00:55:27;;;;;;;3.67;2.37;;;10.80;99.90;;;;;;4917561;29;20446;-72
2022/01/04 00:58:13;;;;;;;4.47;2.23;;;10.80;99.90;;;;;;4939785;29;20424;-73
2022/01/04 01:00:59;;;;;;;4.83;2.13;;;10.90;99.90;;;;;;4931208;29;20447;-73
2022/01/04 01:03:44;;;;;;;7.13;2.63;;;10.90;99.90;;;;;;4935449;29;20432;-73
2022/01/04 01:06:30;;;;;;;3.50;2.90;;;10.80;99.90;;;;;;4931728;29;20428;-73
2022/01/04 01:09:15;;;;;;;5.00;2.73;;;10.80;99.90;;;;;;4914878;29;20970;-73
2022/01/04 01:12:03;;;;;;;4.00;2.50;;;10.90;99.90;;;;;;4930284;29;20779;-73
2022/01/04 01:14:49;;;;;;;3.43;2.87;;;10.80;99.90;;;;;;4936411;29;20475;-73
2022/01/04 01:17:35;;;;;;;3.93;2.77;;;10.80;99.90;;;;;;4936637;29;20886;-73
2022/01/04 01:20:21;;;;;;;9.30;2.90;;;10.80;99.90;;;;;;4934402;29;20993;-72
2022/01/04 01:23:07;;;;;;;3.30;2.23;;;10.80;99.90;;;;;;4935697;29;20790;-72
2022/01/04 01:25:52;;;;;;;4.47;2.70;;;10.80;99.90;;;;;;4931642;29;20452;-72
2022/01/04 01:28:40;;;;;;;6.40;3.07;;;10.90;99.90;;;;;;4936049;29;20471;-72
2022/01/04 01:31:25;;;;;;;3.87;2.40;;;10.90;99.90;;;;;;4927092;29;20793;-72
2022/01/04 01:34:11;;;;;;;3.80;2.00;;;10.90;99.90;;;;;;4932714;29;20997;-72
2022/01/04 01:36:57;;;;;;;4.20;2.80;;;10.90;99.90;;;;;;4945658;29;20455;-72
2022/01/04 01:39:43;;;;;;;3.07;2.33;;;10.90;99.90;;;;;;4930579;29;20415;-72
2022/01/04 01:42:28;;;;;;;4.57;2.57;;;10.90;99.90;;;;;;4934007;29;20953;-72
2022/01/04 01:45:16;;;;;;;4.60;2.37;;;10.90;99.90;;;;;;4940078;29;20657;-72
2022/01/04 01:48:02;;;;;;;5.27;2.63;;;10.90;99.90;;;;;;4939886;29;20483;-73
2022/01/04 01:50:48;;;;;;;4.23;2.33;;;10.80;99.90;;;;;;4934518;29;20480;-73
2022/01/04 01:53:34;;;;;;;3.97;2.23;;;10.80;99.90;;;;;;4935029;29;20468;-73
2022/01/04 01:56:19;;;;;;;3.60;2.90;;;10.90;99.90;;;;;;4939895;29;20410;-73
2022/01/04 01:59:04;;;;;;;6.53;3.03;;;10.90;99.90;;;;;;4935911;29;20406;-73
2022/01/04 02:01:51;;;;;;;4.40;2.70;;;10.90;99.90;;;;;;4931341;29;20459;-73
2022/01/04 02:04:37;;;;;;;5.33;2.73;;;10.90;99.90;;;;;;4936751;29;20448;-73
2022/01/04 02:07:24;;;;;;;8.57;2.60;;;10.90;99.90;;;;;;4917498;29;20476;-73
2022/01/04 02:10:11;;;;;;;4.27;2.50;;;11.00;99.90;;;;;;4930897;29;20419;-73
2022/01/04 02:12:57;;;;;;;4.90;2.70;;;11.00;99.90;;;;;;4929499;29;20400;-73
2022/01/04 02:15:42;;;;;;;7.20;2.90;;;10.90;99.90;;;;;;4936215;29;20437;-73
2022/01/04 02:18:29;;;;;;;5.10;2.70;;;11.00;99.90;;;;;;4934237;29;21102;-73
2022/01/04 02:21:16;;;;;;;5.40;2.73;;;11.00;99.90;;;;;;4929561;29;20460;-73
2022/01/04 02:24:02;;;;;;;3.57;2.17;;;11.00;99.90;;;;;;4931062;29;20531;-73
2022/01/04 02:26:49;;;;;;;9.53;2.60;;;11.10;99.90;;;;;;4933130;29;20888;-73
2022/01/04 02:29:34;;;;;;;3.90;2.43;;;11.10;99.90;;;;;;4934288;29;20457;-74
2022/01/04 02:32:20;;;;;;;5.30;2.87;;;11.00;99.90;;;;;;4931177;29;20395;-73
2022/01/04 02:35:07;;;;;;;4.13;2.83;;;11.10;99.90;;;;;;4928704;29;20551;-73
2022/01/04 02:37:56;;;;;;;5.73;2.20;;;11.10;99.90;;;;;;4934182;29;20529;-73
2022/01/04 02:40:42;;;;;;;5.30;2.60;;;11.10;99.90;;;;;;4928775;29;20488;-73
2022/01/04 02:43:27;;;;;;;6.00;1.93;;;11.10;99.90;;;;;;4935383;29;20569;-73
2022/01/04 02:46:13;;;;;;;4.40;2.83;;;11.10;99.90;;;;;;4934893;29;20475;-73
2022/01/04 02:48:59;;;;;;;5.13;2.50;;;11.10;99.90;;;;;;4931742;29;20448;-74
2022/01/04 02:51:44;;;;;;;2.97;2.30;;;11.00;99.90;;;;;;4925690;29;20446;-73
2022/01/04 02:54:31;;;;;;;4.33;2.13;;;11.00;99.90;;;;;;4928195;29;20961;-73
2022/01/04 02:57:17;;;;;;;3.30;2.40;;;11.00;99.90;;;;;;4931346;29;20948;-73
2022/01/04 03:00:05;;;;;;;3.73;2.27;;;11.00;99.90;;;;;;4931945;29;20460;-73
2022/01/04 03:02:51;;;;;;;7.17;3.57;;;11.00;99.90;;;;;;4924116;29;20469;-74
2022/01/04 03:05:37;;;;;;;5.53;2.70;;;11.00;99.90;;;;;;4925804;29;20915;-73
2022/01/04 03:08:23;;;;;;;5.60;2.63;;;11.00;99.90;;;;;;4932156;29;20436;-73
2022/01/04 03:11:09;;;;;;;5.50;2.90;;;11.00;99.90;;;;;;4933099;29;20822;-73
2022/01/04 03:13:55;;;;;;;5.50;3.10;;;10.90;99.90;;;;;;4934691;29;20468;-73
2022/01/04 03:16:41;;;;;;;3.90;2.57;;;10.90;99.90;;;;;;4934186;29;20540;-73
2022/01/04 03:19:26;;;;;;;4.30;2.83;;;10.90;99.90;;;;;;4928114;29;20584;-74
2022/01/04 03:22:12;;;;;;;3.90;2.50;;;11.00;99.90;;;;;;4926078;29;20591;-72
2022/01/04 03:24:57;;;;;;;4.77;3.00;;;10.90;99.90;;;;;;4933690;29;20477;-73
2022/01/04 03:27:44;;;;;;;4.93;2.60;;;10.90;99.90;;;;;;4942773;29;20558;-74
2022/01/04 03:30:30;;;;;;;3.80;2.20;;;10.90;99.90;;;;;;4928916;29;20585;-73
2022/01/04 03:33:16;;;;;;;3.37;2.30;;;10.90;99.90;;;;;;4931878;29;20577;-73
2022/01/04 03:36:02;;;;;;;3.70;2.63;;;10.90;99.90;;;;;;4934473;29;20425;-73
2022/01/04 03:38:49;;;;;;;4.83;2.87;;;10.90;99.90;;;;;;4932164;29;20521;-73
2022/01/04 03:41:37;;;;;;;3.90;2.27;;;11.00;99.90;;;;;;4934983;29;20456;-73
2022/01/04 03:44:24;;;;;;;3.00;2.30;;;11.00;99.90;;;;;;4934720;29;20501;-72
2022/01/04 03:47:10;;;;;;;2.90;1.90;;;11.00;99.90;;;;;;4931712;29;20453;-73
2022/01/04 03:49:56;;;;;;;2.23;1.73;;;11.00;99.90;;;;;;4931960;29;20423;-73
2022/01/04 03:52:41;;;;;;;5.40;2.53;;;10.90;99.90;;;;;;4936084;29;20581;-73
2022/01/04 03:55:27;;;;;;;8.43;2.10;;;11.00;99.90;;;;;;4934444;29;20978;-73
2022/01/04 03:58:12;;;;;;;6.10;2.73;;;11.00;99.90;;;;;;4939887;29;20461;-73
2022/01/04 04:01:00;;;;;;;4.80;2.70;;;11.00;99.90;;;;;;4931663;29;20883;-73
2022/01/04 04:03:46;;;;;;;3.00;2.50;;;11.00;99.90;;;;;;4936029;28;20495;-73
2022/01/04 04:06:32;;;;;;;3.57;2.37;;;11.00;99.90;;;;;;4934476;29;20407;-73
2022/01/04 04:09:17;;;;;;;3.07;2.40;;;10.90;99.90;;;;;;4926302;29;20428;-73
2022/01/04 04:12:04;;;;;;;3.20;2.23;;;10.90;99.90;;;;;;4931798;29;20448;-73
2022/01/04 04:14:50;;;;;;;2.93;1.80;;;10.90;99.90;;;;;;4933689;29;20824;-73
2022/01/04 04:17:37;;;;;;;2.90;2.20;;;11.00;99.90;;;;;;4930821;29;20435;-73
2022/01/04 04:20:22;;;;;;;4.67;2.40;;;11.00;99.90;;;;;;4933029;29;20822;-73
2022/01/04 04:23:08;;;;;;;5.60;2.20;;;11.00;99.90;;;;;;4938044;29;20455;-73
2022/01/04 04:25:54;;;;;;;4.40;2.20;;;11.00;99.90;;;;;;4940461;29;21067;-73
2022/01/04 04:28:39;;;;;;;8.50;2.50;;;11.00;99.90;;;;;;4927211;29;20845;-73
2022/01/04 04:31:25;;;;;;;3.43;2.43;;;11.00;99.90;;;;;;4927540;29;20560;-73
2022/01/04 04:34:12;;;;;;;2.70;2.03;;;11.00;99.90;;;;;;4931734;29;20496;-73
2022/01/04 04:36:58;;;;;;;7.73;2.20;;;11.00;99.90;;;;;;4938957;29;20810;-73
2022/01/04 04:39:43;;;;;;;2.97;2.30;;;10.90;99.90;;;;;;4936350;29;20813;-73
2022/01/04 04:42:29;;;;;;;2.57;2.10;;;10.80;99.90;;;;;;4928971;29;20565;-73
2022/01/04 04:45:14;;;;;;;2.97;2.07;;;10.90;99.90;;;;;;4931042;29;20491;-73
2022/01/04 04:48:00;;;;;;;3.87;2.30;;;10.80;99.90;;;;;;4934301;29;20460;-73
2022/01/04 04:50:47;;;;;;;5.33;2.20;;;10.80;99.90;;;;;;4937577;29;20448;-73
2022/01/04 04:53:33;;;;;;;2.97;1.93;;;10.70;99.90;;;;;;4941916;29;20472;-73
2022/01/04 04:56:18;;;;;;;2.80;2.40;;;10.70;99.90;;;;;;4938970;29;20455;-73
2022/01/04 04:59:04;;;;;;;2.80;2.23;;;10.70;99.90;;;;;;4929359;29;21054;-73
2022/01/04 05:01:49;;;;;;;2.80;2.10;;;10.80;99.90;;;;;;4935989;29;20467;-73
2022/01/04 05:04:36;;;;;;;3.47;2.40;;;10.80;99.90;;;;;;4942294;28;20581;-73
2022/01/04 05:07:22;;;;;;;4.17;2.73;;;10.80;99.90;;;;;;4930754;29;20931;-73
2022/01/04 05:10:10;;;;;;;4.00;2.30;;;10.90;99.90;;;;;;4922711;29;21038;-73
2022/01/04 05:12:55;;;;;;;2.77;1.70;;;10.80;99.90;;;;;;4934650;29;20917;-73
2022/01/04 05:15:41;;;;;;;2.83;2.00;;;10.80;99.90;;;;;;4934502;29;20440;-73
2022/01/04 05:18:26;;;;;;;4.40;2.10;;;10.80;99.90;;;;;;4933314;29;20457;-73
2022/01/04 05:21:12;;;;;;;2.30;1.80;;;10.70;99.90;;;;;;4929111;29;20467;-73
2022/01/04 05:23:59;;;;;;;4.00;1.90;;;10.80;99.90;;;;;;4938523;28;20446;-73
2022/01/04 05:26:45;;;;;;;3.10;2.00;;;10.80;99.90;;;;;;4936937;29;20777;-73
2022/01/04 05:29:31;;;;;;;2.77;1.80;;;10.80;99.90;;;;;;4936715;29;20468;-73
2022/01/04 05:32:17;;;;;;;3.27;2.23;;;10.80;99.90;;;;;;4927683;29;20436;-74
2022/01/04 05:35:03;;;;;;;2.60;2.00;;;10.80;99.90;;;;;;4984118;23;20796;-72
2022/01/04 05:37:48;;;;;;;4.87;1.60;;;10.80;99.90;;;;;;4947566;29;20451;-73
2022/01/04 05:40:36;;;;;;;4.73;2.20;;;10.80;99.90;;;;;;4944804;29;20552;-72
2022/01/04 05:43:21;;;;;;;2.80;1.70;;;10.70;99.90;;;;;;4945387;28;20442;-73
2022/01/04 05:46:07;;;;;;;4.00;2.10;;;10.70;99.90;;;;;;4925163;29;20803;-73
2022/01/04 05:48:53;;;;;;;3.23;2.30;;;10.70;99.90;;;;;;4929898;29;20419;-73
2022/01/04 05:51:38;;;;;;;4.37;2.60;;;10.70;99.90;;;;;;4927374;29;20420;-73
2022/01/04 05:54:24;;;;;;;2.37;1.87;;;10.70;99.90;;;;;;4928289;29;20528;-73
2022/01/04 05:57:11;;;;;;;3.20;1.83;;;10.70;99.90;;;;;;4928029;29;20449;-72
2022/01/04 05:59:57;;;;;;;2.87;2.10;;;10.70;99.90;;;;;;4929098;29;20948;-72
2022/01/04 06:02:43;;;;;;;2.63;1.80;;;10.70;99.90;;;;;;4927723;29;20451;-72
2022/01/04 06:05:29;;;;;;;2.47;1.63;;;10.70;99.90;;;;;;4928658;29;21042;-72
2022/01/04 06:08:15;;;;;;;2.00;1.73;;;10.80;99.90;;;;;;4920451;29;20580;-72
2022/01/04 06:11:01;;;;;;;5.50;1.80;;;10.80;99.90;;;;;;4933837;29;20431;-72
2022/01/04 06:16:51;;;;;;;3.27;1.97;;;10.80;99.90;;;;;;4926698;29;20444;-73
2022/01/04 06:19:37;;;;;;;2.53;2.20;;;10.80;99.90;;;;;;4930693;29;20448;-72
2022/01/04 06:22:24;;;;;;;3.60;2.10;;;10.80;99.90;;;;;;4932136;29;20461;-72
2022/01/04 06:25:13;;;;;;;3.20;1.50;;;10.80;99.90;;;;;;4927895;29;20473;-72
2022/01/04 06:27:58;;;;;;;3.60;1.80;;;10.80;99.90;;;;;;4927608;29;20416;-72
2022/01/04 06:30:45;;;;;;;4.27;2.23;;;10.80;99.90;;;;;;4924647;29;20609;-74
2022/01/04 06:33:31;;;;;;;2.20;1.63;;;10.80;99.90;;;;;;4925204;29;20500;-72
2022/01/04 06:36:17;;;;;;;2.93;1.90;;;10.90;99.90;;;;;;4919914;29;20815;-72
2022/01/04 06:39:02;;;;;;;4.83;2.40;;;11.00;99.90;;;;;;4931640;29;20423;-72
2022/01/04 06:41:48;;;;;;;2.20;1.50;;;10.90;99.90;;;;;;4928516;29;20473;-72
2022/01/04 06:44:34;;;;;;;3.40;1.67;;;10.90;99.90;;;;;;4926352;29;20447;-73
2022/01/04 06:47:21;;;;;;;3.43;2.20;;;10.90;99.90;;;;;;4930600;29;20833;-72
2022/01/04 06:50:08;;;;;;;2.60;1.67;;;11.00;99.90;;;;;;4926674;29;20489;-72
2022/01/04 06:52:53;;;;;;;3.50;1.53;;;10.90;99.90;;;;;;4934818;29;20417;-72
2022/01/04 06:55:39;;;;;;;1.87;1.37;;;10.90;99.90;;;;;;4929986;29;20787;-72
2022/01/04 06:58:25;;;;;;;2.97;1.60;;;10.90;99.90;;;;;;4928469;29;20440;-72
2022/01/04 07:01:10;;;;;;;4.43;2.17;;;11.00;99.90;;;;;;4934344;29;20801;-72
2022/01/04 07:03:57;;;;;;;3.50;2.20;;;10.90;99.90;;;;;;4922489;29;20839;-72
2022/01/04 07:06:44;;;;;;;4.63;1.70;;;10.90;99.90;;;;;;4929258;29;20437;-72
2022/01/04 07:09:29;;;;;;;2.47;1.80;;;10.90;99.90;;;;;;4928180;29;20569;-71
2022/01/04 07:12:15;;;;;;;2.60;1.70;;;10.90;99.90;;;;;;4928179;29;20412;-72
2022/01/04 07:15:01;;;;;;;2.47;1.80;;;10.90;99.90;;;;;;4924880;29;20488;-72
2022/01/04 07:17:46;;;;;;;2.90;1.53;;;10.90;99.90;;;;;;4930243;29;21135;-72
2022/01/04 07:20:34;;;;;;;2.70;1.80;;;10.90;99.90;;;;;;4933625;29;20563;-72
2022/01/04 07:23:20;;;;;;;2.60;1.90;;;11.00;99.90;;;;;;4931088;29;20431;-73
2022/01/04 07:26:05;;;;;;;3.60;2.00;;;11.00;99.90;;;;;;4926407;29;20411;-72
2022/01/04 07:28:51;;;;;;;3.13;1.87;;;11.00;99.90;;;;;;4921662;29;20434;-72
2022/01/04 07:31:37;;;;;;;3.90;2.47;;;11.10;99.90;;;;;;4920505;29;20427;-74
2022/01/04 07:34:23;;;;;;;2.70;1.80;;;11.00;99.90;;;;;;4925217;29;20476;-73
2022/01/04 07:37:10;;;;;;;3.13;2.13;;;11.10;99.90;;;;;;4921526;29;21018;-73
2022/01/04 07:39:55;;;;;;;5.13;1.67;;;11.10;99.90;;;;;;4932446;29;20427;-72
2022/01/04 07:42:41;;;;;;;2.60;1.60;;;11.00;99.90;;;;;;4926234;29;20880;-73
2022/01/04 07:45:28;;;;;;;3.13;1.83;;;11.10;99.90;;;;;;4924275;29;20469;-72
2022/01/04 07:48:14;;;;;;;3.43;1.70;;;11.10;99.90;;;;;;4931464;29;20550;-73
2022/01/04 07:51:00;;;;;;;2.00;1.50;;;11.10;99.90;;;;;;4931714;29;20424;-72
2022/01/04 07:53:47;;;;;;;2.30;1.33;;;11.10;99.90;;;;;;4930129;29;20420;-72
2022/01/04 07:56:33;;;;;;;2.27;1.40;;;11.10;99.90;;;;;;4929525;29;20450;-73
2022/01/04 07:59:19;;;;;;;3.10;1.80;;;11.10;99.90;;;;;;4927573;29;20437;-73
2022/01/04 08:02:05;;;;;;;4.17;1.67;;;11.10;99.90;;;;;;4923368;29;20435;-72
2022/01/04 08:04:50;;;;;;;1.80;1.40;;;11.10;99.90;;;;;;4926909;29;20462;-72
2022/01/04 08:07:36;;;;;;;2.70;1.60;;;11.10;99.90;;;;;;4929826;29;20443;-73
2022/01/04 08:10:23;;;;;;;2.20;1.40;;;11.20;99.90;;;;;;4923569;29;20455;-73
2022/01/04 08:13:09;;;;;;;3.47;1.80;;;11.10;99.90;;;;;;4922317;29;20445;-72
2022/01/04 08:15:54;;;;;;;4.33;2.20;;;11.20;99.90;;;;;;4918186;29;20443;-71
2022/01/04 08:18:40;;;;;;;2.43;1.70;;;11.20;99.90;;;;;;4925796;29;20445;-72
2022/01/04 08:21:26;;;;;;;2.20;1.40;;;11.10;99.90;;;;;;4928780;29;20447;-72
2022/01/04 08:24:11;;;;;;;4.27;1.80;;;11.10;99.90;;;;;;4927305;29;20507;-72
2022/01/04 08:27:00;;;;;;;1.70;1.37;;;11.10;99.90;;;;;;4936342;29;20468;-72
2022/01/04 08:29:45;;;;;;;3.03;1.50;;;11.20;99.90;;;;;;4929278;29;20957;-72
2022/01/04 08:32:30;;;;;;;3.10;1.63;;;11.20;99.90;;;;;;4932701;29;20524;-72
2022/01/04 08:35:16;;;;;;;3.03;1.80;;;11.20;99.90;;;;;;4928454;29;20466;-73
2022/01/04 08:38:01;;;;;;;2.80;1.60;;;11.20;99.90;;;;;;4929637;29;20489;-72
2022/01/04 08:40:47;;;;;;;2.17;1.53;;;11.20;99.90;;;;;;4933101;29;20480;-74
2022/01/04 08:43:34;;;;;;;2.60;1.73;;;11.20;99.90;;;;;;4933312;29;20574;-72
2022/01/04 08:46:21;;;;;;;1.83;1.30;;;11.30;99.90;;;;;;4938610;29;20399;-73
2022/01/04 08:49:08;;;;;;;2.90;1.30;;;11.30;99.90;;;;;;4937286;29;20447;-73
2022/01/04 08:51:54;;;;;;;4.50;1.70;;;11.30;99.90;;;;;;4935720;29;20584;-73
2022/01/04 08:54:40;;;;;;;1.80;1.30;;;11.40;99.90;;;;;;4933250;29;20447;-73
2022/01/04 08:57:25;;;;;;;1.70;1.30;;;11.40;99.90;;;;;;4945193;28;20448;-73
2022/01/04 09:00:14;;;;;;;1.90;1.40;;;11.40;99.90;;;;;;4927531;29;20443;-73
2022/01/04 09:03:01;;;;;;;2.30;1.40;;;11.50;99.90;;;;;;4936243;29;20440;-73
2022/01/04 09:05:47;;;;;;;2.67;1.23;;;11.50;99.90;;;;;;4925454;29;20448;-73
2022/01/04 09:08:33;;;;;;;2.20;1.40;;;11.50;99.90;;;;;;4940118;29;20565;-73
2022/01/04 09:11:21;;;;;;;3.53;1.63;;;11.50;99.90;;;;;;4930760;29;20466;-72
2022/01/04 09:14:22;;;;;;;3.23;1.47;;;11.60;99.90;;;;;;4930403;29;20442;-72
2022/01/04 09:20:14;;;;;;;2.63;1.53;;;11.60;99.90;;;;;;4924169;29;20948;-72
2022/01/04 09:23:00;;;;;;;2.07;1.13;;;11.50;99.90;;;;;;4936561;29;20455;-72
2022/01/04 09:25:46;;;;;;;2.70;1.33;;;11.60;99.90;;;;;;4929410;29;20464;-73
2022/01/04 09:28:31;;;;;;;3.63;1.40;;;11.60;99.90;;;;;;4937967;29;20420;-73
2022/01/04 09:31:20;;;;;;;2.70;1.63;;;11.60;99.90;;;;;;4937958;29;20610;-73
2022/01/04 09:34:07;;;;;;;1.90;1.47;;;11.60;99.90;;;;;;4925904;29;20464;-73
2022/01/04 09:36:53;;;;;;;2.60;1.70;;;11.70;99.90;;;;;;4927211;29;20529;-74
2022/01/04 09:39:39;;;;;;;10.83;2.30;;;11.70;99.90;;;;;;4936281;29;20928;-73
2022/01/04 09:42:25;;;;;;;2.40;1.40;;;11.80;99.90;;;;;;4932135;29;20586;-73
2022/01/04 09:45:12;;;;;;;4.80;1.83;;;11.80;99.90;;;;;;4929827;29;20434;-73
2022/01/04 09:47:58;;;;;;;4.60;1.83;;;11.80;99.90;;;;;;4930323;29;20812;-73
2022/01/04 09:50:46;;;;;;;4.20;2.60;;;11.60;99.90;;;;;;4927121;29;20441;-74
2022/01/04 09:53:32;;;;;;;4.40;1.80;;;11.60;99.90;;;;;;4922773;29;20549;-73
2022/01/04 09:56:18;;;;;;;2.50;1.80;;;11.60;99.90;;;;;;4925850;29;20428;-73
2022/01/04 09:59:04;;;;;;;5.13;1.60;;;11.60;99.90;;;;;;4935554;29;20438;-76
2022/01/04 10:01:55;;;;;;;3.13;1.70;;;11.60;99.90;;;;;;4934952;29;20411;-73
2022/01/04 10:04:40;;;;;;;3.30;1.77;;;11.60;99.90;;;;;;4921670;29;20452;-74
2022/01/04 10:07:30;;;;;;;3.30;1.63;;;11.50;99.90;;;;;;4936388;29;20392;-74
2022/01/04 10:10:18;;;;;;;2.53;1.63;;;11.50;99.90;;;;;;4934779;29;20457;-74
2022/01/04 10:13:06;;;;;;;4.40;1.90;;;11.50;99.90;;;;;;4925635;29;20501;-74
2022/01/04 10:15:52;;;;;;;3.00;2.17;;;11.50;99.90;;;;;;4932668;29;20591;-73
2022/01/04 10:18:37;;;;;;;4.23;3.00;;;11.60;99.90;;;;;;4922335;29;20506;-74
2022/01/04 10:21:23;;;;;;;3.70;2.90;;;11.60;99.90;;;;;;4928958;29;20457;-74
2022/01/04 10:24:10;;;;;;;4.60;3.20;;;11.60;99.90;;;;;;4917158;29;20993;-73
2022/01/04 10:26:55;;;;;;;2.57;2.37;;;11.60;99.90;;;;;;4935112;29;20471;-74
2022/01/04 10:29:41;;;;;;;11.93;4.00;;;11.60;99.90;;;;;;4925715;29;20419;-73
2022/01/04 10:32:27;;;;;;;5.90;3.53;;;11.60;99.90;;;;;;4923676;29;20605;-74
2022/01/04 10:35:19;;;;;;;5.80;3.33;;;11.60;99.90;;;;;;4934257;29;21040;-74
2022/01/04 10:38:16;;;;;;;3.63;3.00;;;11.50;99.90;;;;;;4933803;29;21011;-74
2022/01/04 10:41:05;;;;;;;3.60;3.03;;;11.50;99.90;;;;;;4933313;29;20547;-74
2022/01/04 10:43:52;;;;;;;2.60;2.37;;;11.50;99.90;;;;;;4923990;29;20456;-74
2022/01/04 10:46:41;;;;;;;2.07;1.63;;;11.40;99.90;;;;;;4935675;29;20925;-74
2022/01/04 10:49:30;;;;;;;2.13;1.27;;;11.30;99.90;;;;;;4934757;29;20445;-74
2022/01/04 10:52:20;;;;;;;1.90;1.50;;;10.90;99.90;;;;;;4927115;29;20453;-74
2022/01/04 10:55:13;;;;;;;1.40;0.90;;;10.80;99.90;;;;;;4935792;29;20776;-73
2022/01/04 10:58:01;;;;;;;2.27;1.00;;;10.80;99.90;;;;;;4932861;29;20933;-76
2022/01/04 11:00:51;;;;;;;1.33;0.70;;;10.80;99.90;;;;;;4927485;29;20424;-74
2022/01/04 11:03:39;;;;;;;1.10;0.57;;;10.80;99.90;;;;;;4927343;29;20523;-74
2022/01/04 11:06:27;;;;;;;1.63;0.70;;;10.80;99.90;;;;;;4926852;29;20495;-73
2022/01/04 11:09:13;;;;;;;1.23;0.70;;;10.70;99.90;;;;;;4928809;29;20424;-73
2022/01/04 11:11:59;;;;;;;1.37;0.70;;;10.70;99.90;;;;;;4919450;29;20447;-73
2022/01/04 11:14:46;;;;;;;1.40;0.63;;;10.80;99.90;;;;;;4932491;29;20447;-72
2022/01/04 11:17:31;;;;;;;1.10;0.60;;;10.60;99.90;;;;;;4920875;29;20474;-73
2022/01/04 11:20:18;;;;;;;1.20;0.63;;;10.60;99.90;;;;;;4927182;29;20392;-71
2022/01/04 11:23:03;;;;;;;1.30;0.80;;;10.60;99.90;;;;;;4933428;29;20815;-73
2022/01/04 11:25:50;;;;;;;1.63;0.63;;;10.40;99.90;;;;;;4924862;29;20527;-73
2022/01/04 11:28:41;;;;;;;1.47;0.63;;;10.30;99.90;;;;;;4927936;29;20454;-73
2022/01/04 11:31:36;;;;;;;1.33;0.60;;;10.30;99.90;;;;;;4929165;29;20988;-74
2022/01/04 11:34:35;;;;;;;1.47;0.80;;;10.20;99.90;;;;;;4926292;29;20480;-73
2022/01/04 11:37:22;;;;;;;1.30;0.60;;;10.20;99.90;;;;;;4949262;23;20492;-72
2022/01/04 11:40:23;;;;;;;3.00;0.70;;;10.20;99.90;;;;;;4950330;28;20757;-72
2022/01/04 11:43:27;;;;;;;1.17;0.60;;;10.20;99.90;;;;;;4943427;29;20532;-72
2022/01/04 11:46:34;;;;;;;1.20;0.50;;;10.00;99.90;;;;;;4953814;28;20857;-72
2022/01/04 11:49:19;;;;;;;1.53;0.80;;;10.00;99.90;;;;;;4951583;29;20889;-72
2022/01/04 11:52:07;;;;;;;1.77;0.70;;;10.00;99.90;;;;;;4948538;29;20426;-72
2022/01/04 11:55:17;;;;;;;1.30;0.60;;;10.00;99.90;;;;;;4952716;29;20448;-72
2022/01/04 11:58:05;;;;;;;1.17;0.60;;;10.00;99.90;;;;;;4959113;28;20515;-72
2022/01/04 12:01:00;;;;;;;1.80;0.87;;;10.00;99.90;;;;;;4945131;28;20456;-72
2022/01/04 12:03:48;;;;;;;1.10;0.53;;;10.00;99.90;;;;;;4948417;29;20992;-72
2022/01/04 12:06:42;;;;;;;1.20;0.63;;;10.10;99.90;;;;;;4949430;28;20447;-72
2022/01/04 12:09:29;;;;;;;2.43;0.60;;;10.00;99.90;;;;;;4945686;29;20782;-72
2022/01/04 12:12:59;;;;;;;1.30;0.67;;;9.90;99.90;;;;;;4946647;29;20430;-72
2022/01/04 12:15:50;;;;;;;1.20;0.57;;;9.70;99.90;;;;;;4943837;28;20474;-72
2022/01/04 12:19:05;;;;;;;1.23;0.50;;;9.70;99.90;;;;;;4950890;29;20473;-72
2022/01/04 12:22:04;;;;;;;3.20;0.80;;;9.80;99.90;;;;;;4949744;29;20539;-72
2022/01/04 12:24:51;;;;;;;1.43;0.77;;;9.70;99.90;;;;;;4952423;29;20451;-72
2022/01/04 12:27:38;;;;;;;1.60;0.80;;;9.70;99.90;;;;;;4952900;28;20460;-72
2022/01/04 12:30:25;;;;;;;1.20;0.50;;;9.80;99.90;;;;;;4948405;29;20554;-72
2022/01/04 12:33:36;;;;;;;1.37;0.70;;;9.80;99.90;;;;;;4951797;29;20441;-72
2022/01/04 12:36:27;;;;;;;1.43;0.70;;;9.50;99.90;;;;;;4947289;28;20446;-72
2022/01/04 12:39:14;;;;;;;1.27;0.60;;;9.30;99.90;;;;;;4949993;29;20502;-72
2022/01/04 12:42:00;;;;;;;1.73;0.60;;;9.40;99.90;;;;;;4952348;29;20391;-72
2022/01/04 12:44:51;;;;;;;1.13;0.60;;;9.40;99.90;;;;;;4949337;28;20491;-72
2022/01/04 12:47:37;;;;;;;1.70;0.80;;;9.40;99.90;;;;;;4948218;29;20544;-72
2022/01/04 12:50:25;;;;;;;1.63;0.83;;;9.30;99.90;;;;;;4940122;29;20430;-72
2022/01/04 12:53:12;;;;;;;1.20;0.63;;;9.30;99.90;;;;;;4949797;29;20873;-72
2022/01/04 12:56:02;;;;;;;1.50;0.77;;;9.20;99.90;;;;;;4952171;28;20423;-72
2022/01/04 12:58:48;;;;;;;1.20;0.60;;;9.10;99.90;;;;;;4949690;28;20423;-72
2022/01/04 13:01:34;;;;;;;6.03;0.70;;;9.00;99.90;;;;;;4947256;29;20543;-72
2022/01/04 13:04:21;;;;;;;2.67;0.83;;;9.00;99.90;;;;;;4941549;28;20467;-72
2022/01/04 13:07:15;;;;;;;1.40;0.70;;;9.00;99.90;;;;;;4952681;28;20454;-72
2022/01/04 13:10:05;;;;;;;1.53;0.60;;;9.00;99.90;;;;;;4946528;29;20427;-72
2022/01/04 13:12:51;;;;;;;1.73;0.70;;;9.10;99.90;;;;;;4955647;29;20440;-72
2022/01/04 13:15:37;;;;;;;1.60;0.87;;;9.20;99.90;;;;;;4951446;29;20538;-72
2022/01/04 13:18:28;;;;;;;1.60;0.67;;;9.20;99.90;;;;;;4954280;29;20529;-72
2022/01/04 13:21:13;;;;;;;1.30;0.63;;;9.20;99.90;;;;;;4948054;29;20751;-72
2022/01/04 13:23:59;;;;;;;1.93;0.73;;;9.10;99.90;;;;;;4955429;29;20490;-72
2022/01/04 13:26:46;;;;;;;1.27;0.60;;;9.00;99.90;;;;;;4959642;28;20451;-72
2022/01/04 13:29:32;;;;;;;1.23;0.57;;;8.90;99.90;;;;;;4949343;29;20527;-71
2022/01/04 13:32:19;;;;;;;1.57;0.87;;;9.00;99.90;;;;;;4952577;29;20451;-72
2022/01/04 13:35:07;;;;;;;1.20;0.50;;;9.00;99.90;;;;;;4954490;29;20439;-71
2022/01/04 13:37:55;;;;;;;1.70;1.00;;;9.00;99.90;;;;;;4953726;28;20803;-71
2022/01/04 13:40:43;;;;;;;2.43;1.50;;;9.00;99.90;;;;;;4949864;28;20502;-71
2022/01/04 13:43:33;;;;;;;9.80;1.87;;;9.10;99.90;;;;;;4953839;29;20540;-72
2022/01/04 13:46:27;;;;;;;10.13;1.70;;;9.10;99.90;;;;;;4952261;29;20653;-72
2022/01/04 13:49:12;;;;;;;3.03;1.20;;;9.20;99.90;;;;;;4951200;29;20451;-72
2022/01/04 13:51:59;;;;;;;1.80;1.10;;;9.20;99.90;;;;;;4955623;29;20541;-72
2022/01/04 13:54:45;;;;;;;2.10;0.90;;;9.20;99.90;;;;;;4955872;28;20424;-72
2022/01/04 13:57:31;;;;;;;2.40;1.20;;;9.20;99.90;;;;;;4961851;28;20969;-72
2022/01/04 14:00:34;;;;;;;1.50;0.73;;;9.20;99.90;;;;;;4949559;29;20948;-72
2022/01/04 14:03:29;;;;;;;1.80;0.90;;;9.30;99.90;;;;;;4955963;28;20427;-72
2022/01/04 14:06:44;;;;;;;1.60;0.80;;;9.20;99.90;;;;;;4955631;28;20474;-72
2022/01/04 14:09:33;;;;;;;2.00;1.03;;;9.10;99.90;;;;;;4927723;29;20509;-71
2022/01/04 14:12:19;;;;;;;1.30;0.87;;;9.10;99.90;;;;;;4955669;29;20542;-71
2022/01/04 14:15:10;;;;;;;2.00;1.00;;;9.10;99.90;;;;;;4952274;29;20430;-72
2022/01/04 14:18:11;;;;;;;2.60;1.13;;;9.00;99.90;;;;;;4949827;28;20480;-72
2022/01/04 14:20:57;;;;;;;2.80;1.40;;;9.00;99.90;;;;;;4954395;28;20598;-72
2022/01/04 14:23:43;;;;;;;2.00;1.17;;;8.80;99.90;;;;;;4952330;29;20456;-72
2022/01/04 14:26:28;;;;;;;3.20;1.10;;;8.60;99.90;;;;;;4955431;28;20450;-72
2022/01/04 14:29:26;;;;;;;1.87;1.10;;;8.60;99.90;;;;;;4950255;29;20422;-72
2022/01/04 14:32:20;;;;;;;2.20;1.00;;;8.60;99.90;;;;;;4952324;29;20947;-72
2022/01/04 14:35:13;;;;;;;1.90;0.93;;;8.70;99.90;;;;;;4950819;28;20447;-72
2022/01/04 14:38:00;;;;;;;1.93;0.93;;;8.80;99.90;;;;;;4945573;28;20875;-72
2022/01/04 14:40:48;;;;;;;2.93;0.93;;;8.80;99.90;;;;;;4946501;29;20831;-72